createdAt,value
2018-11-28T00:00:03.436Z,100478.77
2018-11-28T00:02:38.331Z,100495.70
2018-11-28T00:05:14.830Z,100488.52
2018-11-28T00:07:51.854Z,100494.36
2018-11-28T00:10:26.772Z,100472.26
2018-11-28T00:13:02.101Z,100488.33
2018-11-28T00:15:40.063Z,100492.33
2018-11-28T00:18:21.208Z,100493.63
2018-11-28T00:20:53.995Z,100489.58
2018-11-28T00:23:26.462Z,100484.25
2018-11-28T00:26:02.673Z,100490.62
2018-11-28T00:28:33.318Z,100491.59
2018-11-28T00:31:07.081Z,100488.39
2018-11-28T00:33:41.290Z,100484.25
2018-11-28T00:36:15.125Z,100476.86
2018-11-28T00:38:54.586Z,100484.66
2018-11-28T00:41:29.267Z,100487.59
2018-11-28T00:44:02.861Z,100491.46
2018-11-28T00:46:36.612Z,100488.88
2018-11-28T00:49:13.254Z,100487.83
2018-11-28T00:51:51.466Z,100491.10
2018-11-28T00:54:26.164Z,100476.16
2018-11-28T00:57:00.174Z,100484.16
2018-11-28T00:59:34.979Z,100472.17
2018-11-28T01:02:08.307Z,100471.52
2018-11-28T01:04:41.666Z,100466.47
2018-11-28T01:07:17.839Z,100478.56
2018-11-28T01:09:53.653Z,100488.31
2018-11-28T01:12:29.981Z,100476.02
2018-11-28T01:15:04.970Z,100475.73
2018-11-28T01:17:38.763Z,100487.31
2018-11-28T01:20:21.074Z,100464.23
2018-11-28T01:22:56.237Z,100481.86
2018-11-28T01:25:29.309Z,100351.82
2018-11-28T01:28:04.987Z,100478.84
2018-11-28T01:30:40.109Z,100472.04
2018-11-28T01:33:19.699Z,100474.89
2018-11-28T01:35:54.445Z,100479.16
2018-11-28T01:38:29.871Z,100472.63
2018-11-28T01:41:04.598Z,100480.33
2018-11-28T01:43:36.696Z,100467.27
2018-11-28T01:46:08.064Z,100467.68
2018-11-28T01:48:44.370Z,100461.01
2018-11-28T01:51:18.603Z,100474.47
2018-11-28T01:53:55.150Z,100472.08
2018-11-28T01:56:29.325Z,100467.73
2018-11-28T01:59:03.833Z,100475.84
2018-11-28T02:01:38.092Z,100479.28
2018-11-28T02:04:10.649Z,100468.37
2018-11-28T02:06:45.603Z,100488.54
2018-11-28T02:09:27.183Z,100481.81
2018-11-28T02:12:03.188Z,100482.98
2018-11-28T02:14:35.931Z,100480.09
2018-11-28T02:17:13.579Z,100475.75
2018-11-28T02:19:46.273Z,100471.16
2018-11-28T02:22:19.941Z,100473.78
2018-11-28T02:24:52.925Z,100472.64
2018-11-28T02:27:26.496Z,100464.76
2018-11-28T02:30:01.128Z,100464.67
2018-11-28T02:32:37.990Z,100463.43
2018-11-28T02:35:15.358Z,100465.32
2018-11-28T02:37:50.067Z,100467.92
2018-11-28T02:40:24.667Z,100443.87
2018-11-28T02:42:58.272Z,100482.38
2018-11-28T02:45:32.367Z,100474.94
2018-11-28T02:48:05.805Z,100470.30
2018-11-28T02:50:43.465Z,100471.02
2018-11-28T02:53:20.563Z,100451.95
2018-11-28T02:55:52.263Z,100347.33
2018-11-28T02:58:26.163Z,100469.06
2018-11-28T03:00:59.319Z,100470.78
2018-11-28T03:03:34.334Z,100478.25
2018-11-28T03:06:08.457Z,100475.30
2018-11-28T03:08:41.787Z,100487.43
2018-11-28T03:11:13.379Z,100480.98
2018-11-28T03:13:48.558Z,100485.27
2018-11-28T03:16:24.365Z,100482.25
2018-11-28T03:18:58.296Z,100471.30
2018-11-28T03:21:31.739Z,100464.11
2018-11-28T03:24:05.828Z,100474.09
2018-11-28T03:26:42.088Z,100467.28
2018-11-28T03:29:12.830Z,100465.86
2018-11-28T03:31:49.263Z,100472.84
2018-11-28T03:34:22.280Z,100454.22
2018-11-28T03:36:55.721Z,100476.97
2018-11-28T03:39:28.041Z,100478.14
2018-11-28T03:41:59.482Z,100478.23
2018-11-28T03:44:31.860Z,100484.94
2018-11-28T03:47:06.011Z,100474.31
2018-11-28T03:49:38.362Z,100483.55
2018-11-28T03:52:16.977Z,100482.58
2018-11-28T03:54:50.219Z,100485.93
2018-11-28T03:57:26.114Z,100490.61
2018-11-28T03:59:59.165Z,100361.66
2018-11-28T04:02:33.052Z,100480.63
2018-11-28T04:05:04.302Z,100491.94
2018-11-28T04:07:38.778Z,100485.72
2018-11-28T04:10:14.505Z,100482.28
2018-11-28T04:12:49.669Z,100487.11
2018-11-28T04:15:26.108Z,100467.58
2018-11-28T04:18:00.465Z,100482.36
2018-11-28T04:20:38.541Z,100486.48
2018-11-28T04:23:11.721Z,100488.93
2018-11-28T04:25:48.644Z,100478.91
2018-11-28T04:28:21.127Z,100491.95
2018-11-28T04:30:53.425Z,100485.41
2018-11-28T04:33:26.641Z,100486.90
2018-11-28T04:36:01.537Z,100478.39
2018-11-28T04:38:39.755Z,100487.05
2018-11-28T04:41:12.795Z,100477.06
2018-11-28T04:43:51.285Z,100477.63
2018-11-28T04:46:23.133Z,100353.86
2018-11-28T04:48:54.801Z,100452.30
2018-11-28T04:51:27.061Z,100474.18
2018-11-28T04:54:03.396Z,100486.39
2018-11-28T04:56:39.962Z,100463.03
2018-11-28T04:59:15.907Z,100477.16
2018-11-28T05:01:52.403Z,100452.70
2018-11-28T05:04:26.943Z,100481.28
2018-11-28T05:08:01.478Z,100475.98
2018-11-28T05:10:39.317Z,100475.88
2018-11-28T05:13:13.657Z,100487.19
2018-11-28T05:15:47.920Z,100477.47
2018-11-28T05:18:25.408Z,100483.11
2018-11-28T05:20:57.750Z,100476.93
2018-11-28T05:23:29.298Z,100478.47
2018-11-28T05:26:02.686Z,100484.80
2018-11-28T05:28:37.292Z,100491.80
2018-11-28T05:31:12.952Z,100495.56
2018-11-28T05:33:48.078Z,100493.45
2018-11-28T05:36:21.338Z,100504.70
2018-11-28T05:38:56.906Z,100500.24
2018-11-28T05:41:32.182Z,100498.13
2018-11-28T05:44:06.036Z,100487.06
2018-11-28T05:46:40.438Z,100490.89
2018-11-28T05:49:15.258Z,100486.97
2018-11-28T05:51:48.061Z,100492.76
2018-11-28T05:54:21.910Z,100494.36
2018-11-28T05:56:55.845Z,100497.48
2018-11-28T05:59:32.919Z,100494.02
2018-11-28T06:02:09.686Z,100496.28
2018-11-28T06:04:46.862Z,100497.37
2018-11-28T06:07:30.921Z,100497.06
2018-11-28T06:10:04.790Z,100500.17
2018-11-28T06:12:43.878Z,100507.34
2018-11-28T06:15:22.575Z,100491.45
2018-11-28T06:18:01.376Z,100504.52
2018-11-28T06:20:35.152Z,100506.33
2018-11-28T06:23:14.867Z,100495.98
2018-11-28T06:25:49.639Z,100515.09
2018-11-28T06:28:23.624Z,100518.73
2018-11-28T06:30:59.784Z,100524.78
2018-11-28T06:33:34.397Z,100526.95
2018-11-28T06:36:08.551Z,100530.42
2018-11-28T06:38:44.570Z,100538.12
2018-11-28T06:41:19.034Z,100539.26
2018-11-28T06:43:56.234Z,100538.73
2018-11-28T06:46:32.020Z,100537.30
2018-11-28T06:49:08.642Z,100535.81
2018-11-28T06:51:41.431Z,100533.10
2018-11-28T06:54:13.453Z,100529.01
2018-11-28T06:56:52.073Z,100534.38
2018-11-28T06:59:30.781Z,100421.95
2018-11-28T07:02:07.672Z,100539.48
2018-11-28T07:04:48.171Z,100544.16
2018-11-28T07:07:24.047Z,100532.67
2018-11-28T07:09:59.852Z,100538.24
2018-11-28T07:12:36.084Z,100546.48
2018-11-28T07:15:17.434Z,100562.72
2018-11-28T07:17:54.986Z,100551.26
2018-11-28T07:20:31.854Z,100557.67
2018-11-28T07:23:10.573Z,100439.70
2018-11-28T07:25:49.318Z,100557.52
2018-11-28T07:28:28.480Z,100569.61
2018-11-28T07:31:06.754Z,100562.53
2018-11-28T07:33:42.704Z,100563.86
2018-11-28T07:36:20.789Z,100561.38
2018-11-28T07:38:54.492Z,100561.70
2018-11-28T07:41:29.428Z,100563.30
2018-11-28T07:44:05.928Z,100564.95
2018-11-28T07:46:42.630Z,100538.61
2018-11-28T07:49:16.526Z,100553.86
2018-11-28T07:51:53.294Z,100567.61
2018-11-28T07:54:37.914Z,100573.63
2018-11-28T07:57:11.378Z,100574.78
2018-11-28T07:59:45.811Z,100572.77
2018-11-28T08:02:21.531Z,100560.86
2018-11-28T08:04:57.030Z,100585.31
2018-11-28T08:11:21.037Z,100580.83
2018-11-28T08:13:58.468Z,100587.78
2018-11-28T08:16:34.444Z,100581.81
2018-11-28T08:19:10.711Z,100583.25
2018-11-28T08:21:49.219Z,100595.27
2018-11-28T08:24:24.602Z,100597.23
2018-11-28T08:27:03.189Z,100563.95
2018-11-28T08:29:39.773Z,100605.74
2018-11-28T08:32:17.193Z,100605.16
2018-11-28T08:34:52.720Z,100605.05
2018-11-28T08:37:30.159Z,100607.07
2018-11-28T08:40:04.332Z,100593.79
2018-11-28T08:42:42.986Z,100490.11
2018-11-28T08:45:24.110Z,100600.95
2018-11-28T08:48:09.893Z,100588.20
2018-11-28T08:50:45.475Z,100604.64
2018-11-28T08:53:23.761Z,100599.23
2018-11-28T08:55:59.203Z,100591.53
2018-11-28T08:58:33.205Z,100599.37
2018-11-28T09:01:13.093Z,100599.27
2018-11-28T09:03:50.749Z,100593.44
2018-11-28T09:06:24.612Z,100597.76
2018-11-28T09:09:03.544Z,100599.20
2018-11-28T09:11:38.403Z,100596.90
2018-11-28T09:14:19.348Z,100594.13
2018-11-28T09:16:59.914Z,100594.13
2018-11-28T09:19:40.786Z,100593.00
2018-11-28T09:22:22.391Z,100594.48
2018-11-28T09:25:03.889Z,100599.73
2018-11-28T09:27:41.521Z,100602.59
2018-11-28T09:30:24.807Z,100607.55
2018-11-28T09:33:00.421Z,100487.43
2018-11-28T09:35:36.663Z,100606.53
2018-11-28T09:38:13.513Z,100616.33
2018-11-28T09:40:52.127Z,100612.71
2018-11-28T09:43:29.148Z,100618.25
2018-11-28T09:46:08.004Z,100626.47
2018-11-28T09:51:17.163Z,100615.15
2018-11-28T09:53:51.784Z,100611.25
2018-11-28T09:56:26.143Z,100606.52
2018-11-28T09:58:59.506Z,100611.45
2018-11-28T10:01:33.950Z,100605.31
2018-11-28T10:04:07.899Z,100609.67
2018-11-28T10:06:44.058Z,100608.11
2018-11-28T10:09:19.553Z,100603.52
2018-11-28T10:11:50.502Z,100595.84
2018-11-28T10:14:26.441Z,100591.38
2018-11-28T10:17:00.669Z,100602.59
2018-11-28T10:19:37.865Z,100601.98
2018-11-28T10:22:12.000Z,100591.50
2018-11-28T10:24:46.438Z,100601.89
2018-11-28T10:27:23.099Z,100587.38
2018-11-28T10:29:58.904Z,100594.66
2018-11-28T10:32:37.913Z,100592.62
2018-11-28T10:35:15.236Z,100577.62
2018-11-28T10:37:57.990Z,100583.43
2018-11-28T10:40:36.421Z,100574.02
2018-11-28T10:43:10.897Z,100571.48
2018-11-28T10:45:46.586Z,100576.47
2018-11-28T10:48:26.307Z,100506.91
2018-11-28T10:51:03.425Z,100582.36
2018-11-28T10:53:37.617Z,100577.68
2018-11-28T10:56:17.181Z,100572.61
2018-11-28T10:58:52.399Z,100579.55
2018-11-28T11:01:25.623Z,100571.80
2018-11-28T11:04:05.029Z,100568.72
2018-11-28T11:06:48.336Z,100570.34
2018-11-28T11:09:27.195Z,100565.13
2018-11-28T11:14:52.808Z,100561.17
2018-11-28T11:17:33.399Z,100562.66
2018-11-28T11:20:09.229Z,100561.32
2018-11-28T11:22:48.553Z,100559.80
2018-11-28T11:25:24.407Z,100557.19
2018-11-28T11:28:01.964Z,100551.98
2018-11-28T11:30:35.163Z,100447.28
2018-11-28T11:33:18.379Z,100553.89
2018-11-28T11:35:58.048Z,100545.74
2018-11-28T11:38:33.819Z,100549.92
2018-11-28T11:41:09.813Z,100546.64
2018-11-28T11:43:44.498Z,100495.23
2018-11-28T11:46:22.010Z,100548.68
2018-11-28T11:49:02.940Z,100538.25
2018-11-28T11:51:38.450Z,100533.89
2018-11-28T11:54:11.827Z,100536.14
2018-11-28T11:56:47.878Z,100543.19
2018-11-28T12:02:04.335Z,100533.81
2018-11-28T12:04:56.510Z,100533.00
2018-11-28T12:07:41.616Z,100517.58
2018-11-28T12:10:18.387Z,100522.22
2018-11-28T12:12:52.942Z,100519.11
2018-11-28T12:15:30.579Z,100518.33
2018-11-28T12:18:12.506Z,100513.05
2018-11-28T12:20:59.830Z,100515.33
2018-11-28T12:23:42.786Z,100504.02
2018-11-28T12:26:19.209Z,100510.83
2018-11-28T12:28:56.864Z,100507.03
2018-11-28T12:31:37.463Z,100507.06
2018-11-28T12:34:19.377Z,100514.87
2018-11-28T12:36:56.102Z,100515.97
2018-11-28T12:39:32.038Z,100511.56
2018-11-28T12:42:08.482Z,100510.81
2018-11-28T12:44:51.588Z,100515.48
2018-11-28T12:47:27.846Z,100513.59
2018-11-28T12:50:05.626Z,100510.80
2018-11-28T12:52:43.737Z,100506.05
2018-11-28T12:55:17.940Z,100515.67
2018-11-28T12:57:55.266Z,100492.80
2018-11-28T13:00:35.354Z,100509.62
2018-11-28T13:03:12.552Z,100493.75
2018-11-28T13:05:54.722Z,100502.27
2018-11-28T13:08:32.847Z,100505.33
2018-11-28T13:11:07.502Z,100501.71
2018-11-28T13:13:44.922Z,100502.93
2018-11-28T13:16:21.742Z,100510.50
2018-11-28T13:19:03.173Z,100506.18
2018-11-28T13:21:43.966Z,100454.31
2018-11-28T13:24:27.742Z,100500.98
2018-11-28T13:27:04.462Z,100502.11
2018-11-28T13:29:39.509Z,100501.56
2018-11-28T13:32:16.648Z,100495.80
2018-11-28T13:34:58.657Z,100499.49
2018-11-28T13:37:37.574Z,100492.27
2018-11-28T13:40:18.137Z,100497.47
2018-11-28T13:42:56.705Z,100497.30
2018-11-28T13:45:32.977Z,100491.39
2018-11-28T13:48:09.722Z,100486.55
2018-11-28T13:50:51.010Z,100476.21
2018-11-28T13:53:24.910Z,100489.02
2018-11-28T13:58:46.652Z,100485.52
2018-11-28T14:01:20.088Z,100486.08
2018-11-28T14:03:58.273Z,100487.91
2018-11-28T14:06:37.910Z,100487.48
2018-11-28T14:09:14.595Z,100489.84
2018-11-28T14:11:51.787Z,100481.23
2018-11-28T14:14:26.512Z,100480.80
2018-11-28T14:17:06.825Z,100480.05
2018-11-28T14:19:39.919Z,100473.68
2018-11-28T14:22:18.782Z,100475.31
2018-11-28T14:24:51.893Z,100476.53
2018-11-28T14:27:29.065Z,100483.11
2018-11-28T14:30:05.202Z,100477.09
2018-11-28T14:32:40.263Z,100474.70
2018-11-28T14:35:18.446Z,100483.50
2018-11-28T14:37:58.273Z,100487.70
2018-11-28T14:40:39.600Z,100480.70
2018-11-28T14:45:59.124Z,100484.67
2018-11-28T14:48:37.377Z,100468.95
2018-11-28T14:51:12.045Z,100473.89
2018-11-28T14:54:01.835Z,100466.97
2018-11-28T14:56:35.654Z,100480.06
2018-11-28T14:59:10.803Z,100469.29
2018-11-28T15:01:44.900Z,100497.73
2018-11-28T15:04:18.639Z,100495.45
2018-11-28T15:06:58.868Z,100487.00
2018-11-28T15:09:41.231Z,100487.80
2018-11-28T15:12:20.877Z,100495.53
2018-11-28T15:14:59.094Z,100492.55
2018-11-28T15:17:36.117Z,100490.75
2018-11-28T15:20:14.321Z,100488.66
2018-11-28T15:22:47.863Z,100494.03
2018-11-28T15:25:26.269Z,100473.77
2018-11-28T15:27:58.162Z,100369.92
2018-11-28T15:30:33.097Z,100479.48
2018-11-28T15:33:10.106Z,100472.37
2018-11-28T15:35:41.178Z,100471.03
2018-11-28T15:38:10.975Z,100459.39
2018-11-28T15:40:42.444Z,100462.67
2018-11-28T15:43:13.161Z,100466.69
2018-11-28T15:45:52.067Z,100467.70
2018-11-28T15:48:29.283Z,100471.80
2018-11-28T15:51:05.091Z,100465.20
2018-11-28T15:53:41.647Z,100459.41
2018-11-28T15:56:17.982Z,100457.77
2018-11-28T15:58:51.723Z,100449.50
2018-11-28T16:01:26.157Z,100459.72
2018-11-28T16:04:01.453Z,100464.07
2018-11-28T16:06:35.772Z,100472.33
2018-11-28T16:09:14.320Z,100448.19
2018-11-28T16:11:48.639Z,100463.06
2018-11-28T16:14:25.561Z,100461.55
2018-11-28T16:17:02.367Z,100464.00
2018-11-28T16:19:36.440Z,100474.51
2018-11-28T16:22:13.316Z,100477.90
2018-11-28T16:24:50.486Z,100478.16
2018-11-28T16:27:25.454Z,100462.14
2018-11-28T16:29:59.282Z,100470.19
2018-11-28T16:32:36.210Z,100469.83
2018-11-28T16:35:12.774Z,100468.83
2018-11-28T16:37:53.036Z,100471.18
2018-11-28T16:40:31.126Z,100356.02
2018-11-28T16:43:03.473Z,100424.73
2018-11-28T16:45:44.775Z,100463.73
2018-11-28T16:48:21.962Z,100462.59
2018-11-28T16:51:03.258Z,100455.44
2018-11-28T16:53:46.172Z,100467.49
2018-11-28T16:56:21.899Z,100467.45
2018-11-28T16:58:59.351Z,100344.73
2018-11-28T17:01:38.200Z,100472.96
2018-11-28T17:04:16.646Z,100472.96
2018-11-28T17:06:50.285Z,100360.67
2018-11-28T17:09:26.836Z,100471.87
2018-11-28T17:12:01.091Z,100471.02
2018-11-28T17:14:36.997Z,100468.05
2018-11-28T17:17:17.042Z,100351.85
2018-11-28T17:19:52.515Z,100474.91
2018-11-28T17:22:27.337Z,100464.98
2018-11-28T17:25:02.076Z,100466.67
2018-11-28T17:27:42.876Z,100467.39
2018-11-28T17:30:21.949Z,100475.03
2018-11-28T17:32:58.277Z,100459.73
2018-11-28T17:35:32.873Z,100479.67
2018-11-28T17:38:13.390Z,100484.04
2018-11-28T17:40:50.936Z,100491.82
2018-11-28T17:43:30.217Z,100485.55
2018-11-28T17:46:04.761Z,100492.96
2018-11-28T17:48:42.298Z,100492.23
2018-11-28T17:51:22.825Z,100494.89
2018-11-28T17:54:02.039Z,100470.77
2018-11-28T17:56:41.964Z,100476.69
2018-11-28T17:59:24.896Z,100476.88
2018-11-28T18:02:01.801Z,100480.53
2018-11-28T18:04:34.191Z,100487.73
2018-11-28T18:07:08.485Z,100487.82
2018-11-28T18:09:42.293Z,100496.67
2018-11-28T18:12:19.250Z,100484.84
2018-11-28T18:15:02.511Z,100488.39
2018-11-28T18:17:37.259Z,100484.29
2018-11-28T18:20:12.258Z,100490.95
2018-11-28T18:22:52.207Z,100488.29
2018-11-28T18:25:28.712Z,100488.16
2018-11-28T18:28:01.812Z,100484.47
2018-11-28T18:30:39.757Z,100477.44
2018-11-28T18:33:19.572Z,100479.44
2018-11-28T18:35:50.836Z,100478.53
2018-11-28T18:38:29.047Z,100469.46
2018-11-28T18:41:04.459Z,100456.53
2018-11-28T18:43:38.094Z,100477.47
2018-11-28T18:48:53.706Z,100488.96
2018-11-28T18:51:29.621Z,100479.38
2018-11-28T18:54:03.462Z,100483.45
2018-11-28T18:56:42.314Z,100482.75
2018-11-28T18:59:20.337Z,100483.16
2018-11-28T19:01:55.008Z,100478.95
2018-11-28T19:04:33.007Z,100485.59
2018-11-28T19:07:09.736Z,100483.31
2018-11-28T19:09:48.899Z,100479.36
2018-11-28T19:12:28.785Z,100485.31
2018-11-28T19:17:54.453Z,100479.83
2018-11-28T19:20:30.674Z,100415.84
2018-11-28T19:23:05.215Z,100485.09
2018-11-28T19:25:49.791Z,100373.39
2018-11-28T19:28:20.581Z,100479.00
2018-11-28T19:30:57.174Z,100487.55
2018-11-28T19:33:30.696Z,100485.22
2018-11-28T19:36:09.434Z,100488.03
2018-11-28T19:38:44.212Z,100490.58
2018-11-28T19:41:28.861Z,100489.06
2018-11-28T19:44:07.482Z,100481.98
2018-11-28T19:46:45.220Z,100483.44
2018-11-28T19:49:22.230Z,100488.30
2018-11-28T19:52:00.713Z,100488.11
2018-11-28T19:54:38.916Z,100473.95
2018-11-28T19:57:16.456Z,100469.83
2018-11-28T19:59:49.793Z,100489.34
2018-11-28T20:02:28.106Z,100490.73
2018-11-28T20:05:01.259Z,100498.42
2018-11-28T20:07:38.002Z,100489.09
2018-11-28T20:10:17.105Z,100493.04
2018-11-28T20:12:52.963Z,100490.73
2018-11-28T20:15:36.598Z,100487.81
2018-11-28T20:18:14.548Z,100494.70
2018-11-28T20:20:52.055Z,100496.93
2018-11-28T20:23:27.915Z,100499.42
2018-11-28T20:26:09.149Z,100499.91
2018-11-28T20:28:45.441Z,100496.53
2018-11-28T20:31:22.036Z,100494.88
2018-11-28T20:33:56.912Z,100487.23
2018-11-28T20:36:32.577Z,100485.02
2018-11-28T20:39:13.550Z,100493.41
2018-11-28T20:41:50.659Z,100488.96
2018-11-28T20:44:26.752Z,100480.52
2018-11-28T20:47:04.150Z,100484.14
2018-11-28T20:49:34.278Z,100483.53
2018-11-28T20:52:08.018Z,100483.91
2018-11-28T20:57:28.778Z,100485.41
2018-11-28T21:00:02.782Z,100496.10
2018-11-28T21:02:41.833Z,100486.91
2018-11-28T21:05:16.128Z,100490.80
2018-11-28T21:07:51.068Z,100381.69
2018-11-28T21:10:30.867Z,100495.11
2018-11-28T21:13:05.795Z,100491.58
2018-11-28T21:15:37.261Z,100487.47
2018-11-28T21:18:11.868Z,100484.81
2018-11-28T21:20:51.769Z,100481.42
2018-11-28T21:23:25.659Z,100481.41
2018-11-28T21:26:01.129Z,100463.28
2018-11-28T21:28:36.794Z,100484.91
2018-11-28T21:31:14.834Z,100495.52
2018-11-28T21:33:48.758Z,100492.84
2018-11-28T21:36:24.229Z,100491.55
2018-11-28T21:39:03.532Z,100493.64
2018-11-28T21:41:39.879Z,100493.03
2018-11-28T21:44:23.033Z,100482.73
2018-11-28T21:47:01.531Z,100470.17
2018-11-28T21:49:39.502Z,100464.27
2018-11-28T21:52:20.679Z,100454.93
2018-11-28T21:54:53.968Z,100453.04
2018-11-28T21:57:27.598Z,100449.91
2018-11-28T22:00:01.151Z,100445.45
2018-11-28T22:02:37.033Z,100450.08
2018-11-28T22:05:11.560Z,100449.90
2018-11-28T22:07:49.298Z,100454.06
2018-11-28T22:10:24.293Z,100465.43
2018-11-28T22:12:58.934Z,100459.16
2018-11-28T22:15:39.273Z,100456.12
2018-11-28T22:18:16.538Z,100460.84
2018-11-28T22:20:51.782Z,100440.06
2018-11-28T22:23:25.342Z,100447.11
2018-11-28T22:26:00.637Z,100452.05
2018-11-28T22:28:40.609Z,100469.28
2018-11-28T22:31:15.295Z,100482.82
2018-11-28T22:33:51.277Z,100496.78
2018-11-28T22:36:29.254Z,100494.97
2018-11-28T22:39:09.241Z,100494.20
2018-11-28T22:41:44.260Z,100498.59
2018-11-28T22:44:24.552Z,100494.77
2018-11-28T22:46:56.301Z,100483.77
2018-11-28T22:49:33.140Z,100472.04
2018-11-28T22:52:08.730Z,100447.98
2018-11-28T22:54:42.195Z,100480.14
2018-11-28T22:57:23.489Z,100487.43
2018-11-28T23:00:05.708Z,100480.63
2018-11-28T23:02:48.513Z,100363.71
2018-11-28T23:05:22.846Z,100474.37
2018-11-28T23:07:56.541Z,100473.05
2018-11-28T23:10:33.603Z,100456.40
2018-11-28T23:13:13.976Z,100454.31
2018-11-28T23:15:50.438Z,100439.00
2018-11-28T23:18:23.966Z,100422.59
2018-11-28T23:21:00.107Z,100442.31
2018-11-28T23:26:16.271Z,100450.41
2018-11-28T23:28:54.889Z,100451.38
2018-11-28T23:31:35.669Z,100458.63
2018-11-28T23:37:30.155Z,100465.00
2018-11-28T23:40:06.634Z,100471.06
2018-11-28T23:42:47.545Z,100465.97
2018-11-28T23:45:23.724Z,100455.61
2018-11-28T23:48:01.930Z,100451.42
2018-11-28T23:50:37.824Z,100450.39
2018-11-28T23:53:17.997Z,100450.63
2018-11-28T23:55:53.802Z,100450.97
2018-11-28T23:58:30.931Z,100450.86
